sensor_id;sensor_type;location;lat;lon;timestamp;temperature;humidity
31653;DHT22;18261;53.648;9.910;2023-12-29T16:43:01;9.80;52.90
31653;DHT22;18261;53.648;9.910;2023-12-29T16:45:27;9.80;50.90
31653;DHT22;18261;53.648;9.910;2023-12-29T16:47:53;9.80;53.50
31653;DHT22;18261;53.648;9.910;2023-12-29T16:50:18;9.80;54.50
31653;DHT22;18261;53.648;9.910;2023-12-29T16:52:44;9.70;54.30
31653;DHT22;18261;53.648;9.910;2023-12-29T16:55:09;9.70;52.40
31653;DHT22;18261;53.648;9.910;2023-12-29T16:57:35;9.70;51.90
31653;DHT22;18261;53.648;9.910;2023-12-29T17:00:01;9.80;52.30
31653;DHT22;18261;53.648;9.910;2023-12-29T17:02:26;9.70;49.60
31653;DHT22;18261;53.648;9.910;2023-12-29T17:04:52;9.60;53.00
31653;DHT22;18261;53.648;9.910;2023-12-29T17:07:17;9.60;54.20
31653;DHT22;18261;53.648;9.910;2023-12-29T17:09:43;9.60;57.20
31653;DHT22;18261;53.648;9.910;2023-12-29T17:12:09;9.60;58.20
31653;DHT22;18261;53.648;9.910;2023-12-29T17:14:38;9.60;58.80
31653;DHT22;18261;53.648;9.910;2023-12-29T17:17:06;9.60;59.10
31653;DHT22;18261;53.648;9.910;2023-12-29T17:19:32;9.50;63.60
31653;DHT22;18261;53.648;9.910;2023-12-29T17:21:58;9.60;61.40
31653;DHT22;18261;53.648;9.910;2023-12-29T17:24:24;9.60;61.70
31653;DHT22;18261;53.648;9.910;2023-12-29T17:26:49;9.60;59.00
31653;DHT22;18261;53.648;9.910;2023-12-29T17:29:15;9.60;57.90
31653;DHT22;18261;53.648;9.910;2023-12-29T17:31:41;9.60;56.50
31653;DHT22;18261;53.648;9.910;2023-12-29T17:34:07;9.70;54.20
31653;DHT22;18261;53.648;9.910;2023-12-29T17:36:33;9.60;56.20
31653;DHT22;18261;53.648;9.910;2023-12-29T17:38:59;9.70;55.10
31653;DHT22;18261;53.648;9.910;2023-12-29T17:41:26;9.80;52.50
31653;DHT22;18261;53.648;9.910;2023-12-29T17:43:52;9.70;52.50
31653;DHT22;18261;53.648;9.910;2023-12-29T17:46:18;9.60;52.20
31653;DHT22;18261;53.648;9.910;2023-12-29T17:48:44;9.70;50.60
31653;DHT22;18261;53.648;9.910;2023-12-29T17:51:10;9.70;52.20
31653;DHT22;18261;53.648;9.910;2023-12-29T17:53:36;9.60;54.20
31653;DHT22;18261;53.648;9.910;2023-12-29T17:56:05;9.60;53.20
31653;DHT22;18261;53.648;9.910;2023-12-29T17:58:31;9.60;52.50
31653;DHT22;18261;53.648;9.910;2023-12-29T18:00:57;9.70;53.20
31653;DHT22;18261;53.648;9.910;2023-12-29T18:03:23;9.70;53.10
31653;DHT22;18261;53.648;9.910;2023-12-29T18:05:48;9.70;52.80
31653;DHT22;18261;53.648;9.910;2023-12-29T18:08:17;9.60;56.90
31653;DHT22;18261;53.648;9.910;2023-12-29T18:10:44;9.60;55.70
31653;DHT22;18261;53.648;9.910;2023-12-29T18:13:11;9.60;53.60
31653;DHT22;18261;53.648;9.910;2023-12-29T18:15:37;9.60;56.10
31653;DHT22;18261;53.648;9.910;2023-12-29T18:18:03;9.60;55.30
31653;DHT22;18261;53.648;9.910;2023-12-29T18:20:29;9.60;56.20
31653;DHT22;18261;53.648;9.910;2023-12-29T18:22:55;9.60;56.30
31653;DHT22;18261;53.648;9.910;2023-12-29T18:25:20;9.60;59.20
31653;DHT22;18261;53.648;9.910;2023-12-29T18:27:46;9.60;58.60
31653;DHT22;18261;53.648;9.910;2023-12-29T18:30:12;9.60;58.30
31653;DHT22;18261;53.648;9.910;2023-12-29T18:32:37;9.60;58.70
31653;DHT22;18261;53.648;9.910;2023-12-29T18:35:03;9.60;60.70
31653;DHT22;18261;53.648;9.910;2023-12-29T18:37:30;9.50;61.20
31653;DHT22;18261;53.648;9.910;2023-12-29T18:39:56;9.50;64.40
31653;DHT22;18261;53.648;9.910;2023-12-29T18:42:22;9.60;66.50
31653;DHT22;18261;53.648;9.910;2023-12-29T18:44:47;9.60;67.00
31653;DHT22;18261;53.648;9.910;2023-12-29T18:47:13;9.60;67.90
31653;DHT22;18261;53.648;9.910;2023-12-29T18:49:39;9.50;71.20
31653;DHT22;18261;53.648;9.910;2023-12-29T18:52:05;9.50;72.60
31653;DHT22;18261;53.648;9.910;2023-12-29T18:54:31;9.50;74.80
31653;DHT22;18261;53.648;9.910;2023-12-29T18:57:00;9.60;75.70
31653;DHT22;18261;53.648;9.910;2023-12-29T18:59:27;9.60;75.50
31653;DHT22;18261;53.648;9.910;2023-12-29T19:01:53;9.60;75.60
31653;DHT22;18261;53.648;9.910;2023-12-29T19:04:20;9.60;76.50
31653;DHT22;18261;53.648;9.910;2023-12-29T19:06:46;9.60;78.70
31653;DHT22;18261;53.648;9.910;2023-12-29T19:09:12;9.50;79.70
31653;DHT22;18261;53.648;9.910;2023-12-29T19:11:39;9.50;81.60
31653;DHT22;18261;53.648;9.910;2023-12-29T19:14:05;9.40;81.80
31653;DHT22;18261;53.648;9.910;2023-12-29T19:16:35;9.40;84.00
31653;DHT22;18261;53.648;9.910;2023-12-29T19:19:01;9.50;82.30
